Aeroporto :







RITROVATECI SU...

 
LOGIN :

Iscrizione | Disclaimer

   EN    FR    IT 

 









Sommario :    VFR   VFR Marginale   IFR   IFR Intensivo   IFR Molto Intensivo
Visibilità : 
Base nubi : 
>= 8 km
>= 3000ft
5 / 8 km
1000 / 3000 ft
1500m / 5 km
500 / 1000 ft
800 / 1500m
200 / 500 ft
< 800m
< 200 ft
Simboli :   Temporali  Nebbia  Neve Forte  Precipitazioni Forti  Vento > 20 kt






- Altitudine del aeroporto : 488 ft
- Codice IATA : EEN


KEEN - Dillant Hopkins

ULTIMO METAR :
  • 070956Z AUTO 00000KT 10SM CLR 10/09 A2985 RMK AO2 SLP111 T01000094 $

METARs OBSOLETI :
  • 070856Z AUTO 35004KT 10SM CLR 11/09 A2983 RMK AO2 SLP104 T01110094 53010 $
  • 070819Z AUTO 00000KT 10SM FEW001 10/10 A2982 RMK AO2 $
  • 070812Z AUTO 00000KT 2SM BR SCT001 SCT024 09/09 A2982 RMK AO2 $
  • 070801Z AUTO 00000KT 1SM BR SCT001 SCT024 09/09 A2982 RMK AO2 $
  • 070749Z AUTO 00000KT 1/2SM FG FEW001 SCT024 09/09 A2982 RMK AO2 $
  • 070746Z AUTO 00000KT 1SM BR FEW024 09/09 A2982 RMK AO2 $

TAF N/A
FIR KZBW / America del Nord



MetMap, La meteo Aeronautica in un colpo d'occhio ! - Copyright ORBIFLY Dicembre 2007 - Disclaimer

ORBIFLY MET'MAP TEAM :

Programmazione e sviluppo : Alexandra Zaïnal
Concezione : Baudouin d'Aumeries
Aiuto per la programmazione : Marc-Olivier Méhu
Supporto tecnico e logistico : Manuel Goepfert
Aiuto per la traduzione : Arnaldo La Scala

Contatto : metmap@orbifly.com




FONTI E CREDITI :

   NOAA